createdAt,value
2022-12-19T00:01:38.527Z,-2.29
2022-12-19T00:04:09.113Z,-2.30
2022-12-19T00:06:37.505Z,-2.27
2022-12-19T00:09:04.785Z,-2.27
2022-12-19T00:11:32.371Z,-2.24
2022-12-19T00:13:59.882Z,-2.25
2022-12-19T00:16:29.020Z,-2.30
2022-12-19T00:18:58.186Z,-2.34
2022-12-19T00:21:28.018Z,-2.35
2022-12-19T00:23:55.222Z,-2.36
2022-12-19T00:26:23.716Z,-2.34
2022-12-19T00:28:54.493Z,-2.34
2022-12-19T00:31:22.793Z,-2.38
2022-12-19T00:33:49.985Z,-2.37
2022-12-19T00:36:23.166Z,-2.31
2022-12-19T00:38:51.433Z,-2.33
2022-12-19T00:41:34.629Z,-2.46
2022-12-19T00:44:04.009Z,-2.53
2022-12-19T00:46:32.961Z,-2.55
2022-12-19T00:49:00.086Z,-2.56
2022-12-19T00:51:29.545Z,-2.57
2022-12-19T00:53:58.016Z,-2.55
2022-12-19T00:56:37.079Z,-2.61
2022-12-19T00:59:06.731Z,-2.59
2022-12-19T01:01:36.165Z,-2.53
2022-12-19T01:04:27.642Z,-2.54
2022-12-19T01:06:51.344Z,-2.54
2022-12-19T01:09:18.402Z,-2.52
2022-12-19T01:12:04.341Z,-2.61
2022-12-19T01:14:31.082Z,-2.64
2022-12-19T01:16:58.025Z,-2.64
2022-12-19T01:19:38.949Z,-2.65
2022-12-19T01:22:09.180Z,-2.57
2022-12-19T01:24:36.272Z,-2.65
2022-12-19T01:27:03.048Z,-2.65
2022-12-19T01:29:29.757Z,-2.63
2022-12-19T01:31:58.103Z,-2.62
2022-12-19T01:34:24.806Z,-2.56
2022-12-19T01:36:51.511Z,-2.57
2022-12-19T01:39:18.198Z,-2.53
2022-12-19T01:41:45.024Z,-2.50
2022-12-19T01:44:11.711Z,-2.47
2022-12-19T01:46:48.948Z,-2.48
2022-12-19T01:49:22.392Z,-2.42
2022-12-19T01:51:53.668Z,-2.37
2022-12-19T01:54:25.787Z,-2.31
2022-12-19T01:56:55.839Z,-2.31
2022-12-19T01:59:39.114Z,-2.38
2022-12-19T02:02:30.465Z,-2.41
2022-12-19T02:04:57.227Z,-2.36
2022-12-19T02:07:25.904Z,-2.33
2022-12-19T02:09:57.644Z,-2.31
2022-12-19T02:12:37.886Z,-2.36
2022-12-19T02:15:07.273Z,-2.35
2022-12-19T02:18:21.516Z,-2.39
2022-12-19T02:21:15.659Z,-2.39
2022-12-19T02:23:46.284Z,-2.36
2022-12-19T02:26:33.003Z,-2.34
2022-12-19T02:29:11.371Z,-2.26
2022-12-19T02:32:07.915Z,-2.34
2022-12-19T02:35:13.029Z,-2.32
2022-12-19T02:38:20.215Z,-2.39
2022-12-19T02:41:15.654Z,-2.33
2022-12-19T02:43:47.524Z,-2.36
2022-12-19T02:46:19.413Z,-2.34
2022-12-19T02:48:47.077Z,-2.31
2022-12-19T02:51:14.044Z,-2.34
2022-12-19T02:53:40.985Z,-2.33
2022-12-19T02:56:34.341Z,-2.42
2022-12-19T02:59:20.332Z,-2.34
2022-12-19T03:01:58.444Z,-2.48
2022-12-19T03:04:34.944Z,-2.52
2022-12-19T03:07:10.541Z,-2.49
2022-12-19T03:09:50.721Z,-2.57
2022-12-19T03:12:38.570Z,-2.59
2022-12-19T03:15:07.417Z,-2.55
2022-12-19T03:17:40.940Z,-2.48
2022-12-19T03:20:35.036Z,-2.51
2022-12-19T03:23:02.388Z,-2.52
2022-12-19T03:25:31.021Z,-2.51
2022-12-19T03:28:04.787Z,-2.51
2022-12-19T03:30:35.072Z,-2.44
2022-12-19T03:33:03.064Z,-2.43
2022-12-19T03:35:31.797Z,-2.39
2022-12-19T03:38:02.138Z,-2.38
2022-12-19T03:40:30.338Z,-2.39
2022-12-19T03:43:11.994Z,-2.35
2022-12-19T03:45:49.053Z,-2.35
2022-12-19T03:48:43.999Z,-2.32
2022-12-19T03:51:39.602Z,-2.30
2022-12-19T03:54:09.117Z,-2.23
2022-12-19T03:56:46.552Z,-2.26
2022-12-19T03:59:44.804Z,-2.23
2022-12-19T04:02:14.672Z,-2.15
2022-12-19T04:04:46.065Z,-2.09
2022-12-19T04:07:15.013Z,-2.01
2022-12-19T04:09:44.896Z,-2.01
2022-12-19T04:12:25.652Z,-1.98
2022-12-19T04:14:52.640Z,-1.89
2022-12-19T04:17:27.222Z,-1.86
2022-12-19T04:20:01.822Z,-1.79
2022-12-19T04:22:44.648Z,-1.78
2022-12-19T04:25:15.744Z,-1.64
2022-12-19T04:27:48.292Z,-1.60
2022-12-19T04:30:17.714Z,-1.57
2022-12-19T04:32:44.909Z,-1.63
2022-12-19T04:35:12.159Z,-1.60
2022-12-19T04:37:39.323Z,-1.63
2022-12-19T04:40:08.414Z,-1.66
2022-12-19T04:42:35.292Z,-1.67
2022-12-19T04:45:02.189Z,-1.73
2022-12-19T04:47:29.805Z,-1.68
2022-12-19T04:49:56.518Z,-1.64
2022-12-19T04:52:23.281Z,-1.57
2022-12-19T04:54:51.093Z,-1.56
2022-12-19T04:57:17.792Z,-1.53
2022-12-19T04:59:44.468Z,-1.44
2022-12-19T05:02:11.216Z,-1.43
2022-12-19T05:04:37.986Z,-1.39
2022-12-19T05:07:04.723Z,-1.33
2022-12-19T05:09:32.615Z,-1.33
2022-12-19T05:11:59.391Z,-1.37
2022-12-19T05:14:26.418Z,-1.48
2022-12-19T05:16:58.918Z,-1.47
2022-12-19T05:19:28.415Z,-1.48
2022-12-19T05:21:55.714Z,-1.47
2022-12-19T05:24:22.833Z,-1.38
2022-12-19T05:26:50.171Z,-1.36
2022-12-19T05:29:17.482Z,-1.42
2022-12-19T05:31:44.306Z,-1.44
2022-12-19T05:34:11.232Z,-1.42
2022-12-19T05:36:38.073Z,-1.43
2022-12-19T05:39:04.888Z,-1.37
2022-12-19T05:41:31.737Z,-1.39
2022-12-19T05:43:58.590Z,-1.48
2022-12-19T05:46:25.930Z,-1.45
2022-12-19T05:48:53.619Z,-1.46
2022-12-19T05:51:21.130Z,-1.38
2022-12-19T05:53:48.383Z,-1.34
2022-12-19T05:56:18.047Z,-1.31
2022-12-19T05:58:45.732Z,-1.32
2022-12-19T06:01:18.395Z,-1.25
2022-12-19T06:03:45.629Z,-1.22
2022-12-19T06:06:14.986Z,-1.17
2022-12-19T06:08:42.161Z,-1.16
2022-12-19T06:11:10.201Z,-1.10
2022-12-19T06:13:37.873Z,-1.08
2022-12-19T06:16:13.628Z,-1.02
2022-12-19T06:18:44.732Z,-1.06
2022-12-19T06:21:17.510Z,-1.10
2022-12-19T06:23:45.333Z,-1.06
2022-12-19T06:26:18.576Z,-1.10
2022-12-19T06:28:46.449Z,-1.02
2022-12-19T06:31:14.683Z,-0.99
2022-12-19T06:33:43.003Z,-0.93
2022-12-19T06:36:19.888Z,-0.98
2022-12-19T06:38:46.696Z,-1.01
2022-12-19T06:41:33.305Z,-1.01
2022-12-19T06:44:01.322Z,-0.91
2022-12-19T06:46:28.797Z,-0.86
2022-12-19T06:48:55.544Z,-0.83
2022-12-19T06:51:22.700Z,-0.79
2022-12-19T06:53:49.860Z,-0.77
2022-12-19T06:56:17.462Z,-0.80
2022-12-19T06:58:47.037Z,-0.82
2022-12-19T07:01:32.538Z,-0.90
2022-12-19T07:03:59.602Z,-0.83
2022-12-19T07:06:26.428Z,-0.81
2022-12-19T07:08:53.950Z,-0.81
2022-12-19T07:11:20.692Z,-0.80
2022-12-19T07:13:47.367Z,-0.83
2022-12-19T07:16:14.327Z,-0.78
2022-12-19T07:18:42.187Z,-0.81
2022-12-19T07:21:11.396Z,-0.82
2022-12-19T07:23:38.755Z,-0.88
2022-12-19T07:26:06.023Z,-0.88
2022-12-19T07:28:35.041Z,-0.87
2022-12-19T07:31:03.508Z,-0.86
2022-12-19T07:33:31.643Z,-0.81
2022-12-19T07:36:03.962Z,-0.84
2022-12-19T07:38:30.784Z,-0.86
2022-12-19T07:41:00.754Z,-0.78
2022-12-19T07:43:27.643Z,-0.72
2022-12-19T07:45:57.393Z,-0.65
2022-12-19T07:48:24.652Z,-0.58
2022-12-19T07:50:51.501Z,-0.57
2022-12-19T07:53:18.346Z,-0.55
2022-12-19T07:55:45.263Z,-0.56
2022-12-19T07:58:12.077Z,-0.61
2022-12-19T08:00:38.828Z,-0.57
2022-12-19T08:03:05.644Z,-0.56
2022-12-19T08:05:34.883Z,-0.60
2022-12-19T08:08:03.915Z,-0.52
2022-12-19T08:10:30.991Z,-0.50
2022-12-19T08:12:57.794Z,-0.46
2022-12-19T08:15:24.951Z,-0.42
2022-12-19T08:17:54.426Z,-0.44
2022-12-19T08:20:21.522Z,-0.44
2022-12-19T08:22:48.274Z,-0.43
2022-12-19T08:25:15.167Z,-0.38
2022-12-19T08:27:43.076Z,-0.33
2022-12-19T08:30:10.418Z,-0.40
2022-12-19T08:32:37.119Z,-0.44
2022-12-19T08:35:04.065Z,-0.43
2022-12-19T08:37:30.796Z,-0.39
2022-12-19T08:39:57.701Z,-0.38
2022-12-19T08:42:24.459Z,-0.39
2022-12-19T08:44:51.173Z,-0.33
2022-12-19T08:47:18.031Z,-0.27
2022-12-19T08:49:44.821Z,-0.21
2022-12-19T08:52:11.534Z,-0.20
2022-12-19T08:54:38.565Z,-0.19
2022-12-19T08:57:05.297Z,-0.19
2022-12-19T08:59:32.376Z,-0.17
2022-12-19T09:02:00.761Z,-0.13
2022-12-19T09:06:02.141Z,-0.13
2022-12-19T09:07:16.184Z,-0.12
2022-12-19T09:09:43.765Z,-0.07
2022-12-19T09:12:12.004Z,-0.01
2022-12-19T09:14:38.786Z,-0.03
2022-12-19T09:17:05.584Z,0.01
2022-12-19T09:19:32.819Z,0.06
2022-12-19T09:21:59.585Z,0.09
2022-12-19T09:24:26.485Z,0.09
2022-12-19T09:26:53.586Z,0.10
2022-12-19T09:29:22.096Z,0.16
2022-12-19T09:31:55.354Z,0.25
2022-12-19T09:34:23.999Z,0.35
2022-12-19T09:36:51.596Z,0.38
2022-12-19T09:39:18.638Z,0.40
2022-12-19T09:42:39.360Z,0.27
2022-12-19T09:45:31.573Z,0.29
2022-12-19T09:48:00.811Z,0.38
2022-12-19T09:50:52.431Z,0.39
2022-12-19T09:53:27.932Z,0.43
2022-12-19T09:55:57.843Z,0.49
2022-12-19T09:58:53.803Z,0.49
2022-12-19T10:01:26.528Z,0.59
2022-12-19T10:04:08.996Z,0.63
2022-12-19T10:07:18.209Z,0.65
2022-12-19T10:12:12.742Z,0.60
2022-12-19T10:12:42.765Z,0.62
2022-12-19T10:15:22.096Z,0.62
2022-12-19T10:18:10.756Z,0.65
2022-12-19T10:20:48.998Z,0.72
2022-12-19T10:23:42.365Z,0.74
2022-12-19T10:26:24.647Z,0.74
2022-12-19T10:29:10.346Z,0.75
2022-12-19T10:31:39.583Z,0.72
2022-12-19T10:34:30.173Z,0.64
2022-12-19T10:37:23.073Z,0.68
2022-12-19T10:40:28.312Z,0.65
2022-12-19T10:43:10.516Z,0.75
2022-12-19T10:45:48.274Z,0.80
2022-12-19T10:48:30.822Z,0.76
2022-12-19T10:50:58.666Z,0.75
2022-12-19T10:53:32.253Z,0.74
2022-12-19T10:56:12.277Z,0.74
2022-12-19T10:58:43.667Z,0.78
2022-12-19T11:01:33.392Z,0.80
2022-12-19T11:04:26.787Z,0.76
2022-12-19T11:07:21.422Z,0.80
2022-12-19T11:09:58.173Z,0.85
2022-12-19T11:18:07.859Z,0.96
2022-12-19T11:19:17.625Z,1.05
2022-12-19T11:27:06.570Z,1.09
2022-12-19T11:29:35.298Z,1.05
2022-12-19T11:29:46.979Z,1.09
2022-12-19T11:30:36.674Z,1.04
2022-12-19T11:32:42.664Z,1.12
2022-12-19T11:35:37.288Z,1.14
2022-12-19T11:38:08.513Z,1.14
2022-12-19T11:40:50.220Z,1.16
2022-12-19T11:43:43.849Z,1.13
2022-12-19T11:46:34.725Z,1.12
2022-12-19T11:49:42.449Z,0.84
2022-12-19T11:53:02.501Z,0.88
2022-12-19T11:55:30.504Z,0.91
2022-12-19T11:57:58.461Z,0.91
2022-12-19T12:00:25.715Z,0.95
2022-12-19T12:03:02.453Z,0.98
2022-12-19T12:05:45.306Z,0.93
2022-12-19T12:10:35.254Z,0.91
2022-12-19T12:19:41.797Z,1.06
2022-12-19T12:30:59.200Z,1.15
2022-12-19T12:31:13.483Z,1.19
2022-12-19T12:31:17.978Z,1.13
2022-12-19T12:31:40.085Z,1.13
2022-12-19T12:31:46.927Z,1.11
2022-12-19T12:31:50.065Z,1.14
2022-12-19T12:35:50.920Z,1.09
2022-12-19T12:39:18.211Z,1.18
2022-12-19T12:42:23.903Z,1.22
2022-12-19T12:44:54.880Z,1.26
2022-12-19T12:47:25.776Z,1.21
2022-12-19T12:50:00.738Z,1.16
2022-12-19T12:52:33.893Z,1.21
2022-12-19T12:55:01.530Z,1.13
2022-12-19T12:57:39.819Z,1.06
2022-12-19T13:00:28.207Z,1.07
2022-12-19T13:03:04.730Z,0.91
2022-12-19T13:05:46.803Z,0.75
2022-12-19T13:08:40.150Z,0.57
2022-12-19T13:11:37.242Z,0.48
2022-12-19T13:14:05.070Z,0.52
2022-12-19T13:16:48.809Z,0.52
2022-12-19T13:19:41.107Z,0.52
2022-12-19T13:22:18.148Z,0.47
2022-12-19T13:24:53.542Z,0.48
2022-12-19T13:27:20.272Z,0.51
2022-12-19T13:30:10.519Z,0.49
2022-12-19T13:32:40.361Z,0.59
2022-12-19T13:36:09.346Z,0.56
2022-12-19T13:40:02.472Z,0.57
2022-12-19T13:41:30.250Z,0.51
2022-12-19T13:43:59.811Z,0.50
2022-12-19T13:46:45.847Z,0.46
2022-12-19T13:49:34.432Z,0.50
2022-12-19T13:52:02.302Z,0.45
2022-12-19T13:54:44.855Z,0.43
2022-12-19T13:57:31.253Z,0.35
2022-12-19T14:00:07.154Z,0.30
2022-12-19T14:02:56.560Z,0.36
2022-12-19T14:06:14.751Z,0.43
2022-12-19T14:08:23.705Z,0.44
2022-12-19T14:11:48.023Z,0.42
2022-12-19T14:14:17.718Z,0.41
2022-12-19T14:16:48.666Z,0.43
2022-12-19T14:19:19.640Z,0.37
2022-12-19T14:22:07.371Z,0.40
2022-12-19T14:24:33.095Z,0.37
2022-12-19T14:28:23.522Z,0.28
2022-12-19T14:30:27.237Z,0.26
2022-12-19T14:33:47.103Z,0.18
2022-12-19T14:36:10.440Z,0.18
2022-12-19T14:39:19.430Z,0.25
2022-12-19T14:41:48.005Z,0.21
2022-12-19T14:52:34.220Z,0.14
2022-12-19T14:54:01.915Z,0.05
2022-12-19T14:54:12.043Z,0.03
2022-12-19T14:54:23.528Z,0.02
2022-12-19T14:56:09.323Z,0.01
2022-12-19T14:58:56.251Z,-0.01
2022-12-19T15:01:29.972Z,-0.05
2022-12-19T15:04:48.887Z,-0.02
2022-12-19T15:07:08.389Z,-0.04
2022-12-19T15:11:03.597Z,-0.06
2022-12-19T15:14:52.223Z,-0.12
2022-12-19T15:16:07.575Z,-0.10
2022-12-19T15:18:41.198Z,-0.11
2022-12-19T15:21:10.189Z,-0.32
2022-12-19T15:23:37.016Z,-0.12
2022-12-19T15:26:11.035Z,-0.16
2022-12-19T15:28:52.585Z,-0.17
2022-12-19T15:31:36.061Z,-0.15
2022-12-19T15:34:34.774Z,-0.20
2022-12-19T15:37:02.860Z,-0.17
2022-12-19T15:39:30.372Z,-0.13
2022-12-19T15:41:59.475Z,-0.10
2022-12-19T15:44:39.759Z,-0.06
2022-12-19T15:47:14.877Z,-0.07
2022-12-19T15:49:41.797Z,0.00
2022-12-19T15:52:20.569Z,0.02
2022-12-19T15:54:50.306Z,0.04
2022-12-19T15:57:36.263Z,0.07
2022-12-19T16:00:16.213Z,0.07
2022-12-19T16:03:21.122Z,0.10
2022-12-19T16:05:30.146Z,0.13
2022-12-19T16:07:58.813Z,0.11
2022-12-19T16:10:27.258Z,0.15
2022-12-19T16:12:56.744Z,0.18
2022-12-19T16:15:26.733Z,0.18
2022-12-19T16:17:54.507Z,0.19
2022-12-19T16:20:32.912Z,0.18
2022-12-19T16:22:59.757Z,0.19
2022-12-19T16:25:51.381Z,0.19
2022-12-19T16:28:29.546Z,0.25
2022-12-19T16:30:58.075Z,0.27
2022-12-19T16:33:30.127Z,0.24
2022-12-19T16:36:06.686Z,0.25
2022-12-19T16:38:34.207Z,0.29
2022-12-19T16:41:01.845Z,0.37
2022-12-19T16:43:38.369Z,0.35
2022-12-19T16:46:07.363Z,0.42
2022-12-19T16:48:36.096Z,0.46
2022-12-19T16:51:03.363Z,0.45
2022-12-19T16:53:30.448Z,0.51
2022-12-19T16:56:00.903Z,0.48
2022-12-19T16:58:29.546Z,0.50
2022-12-19T17:00:56.916Z,0.49
2022-12-19T17:03:29.267Z,0.46
2022-12-19T17:05:56.554Z,0.50
2022-12-19T17:08:23.846Z,0.51
2022-12-19T17:10:52.431Z,0.52
2022-12-19T17:13:19.673Z,0.56
2022-12-19T17:15:52.583Z,0.58
2022-12-19T17:18:34.957Z,0.59
2022-12-19T17:21:01.890Z,0.58
2022-12-19T17:23:31.107Z,0.57
2022-12-19T17:25:59.477Z,0.62
2022-12-19T17:28:29.159Z,0.68
2022-12-19T17:31:00.246Z,0.73
2022-12-19T17:33:40.955Z,0.79
2022-12-19T17:36:10.973Z,0.75
2022-12-19T17:38:37.718Z,0.74
2022-12-19T17:41:04.650Z,0.71
2022-12-19T17:43:31.496Z,0.66
2022-12-19T17:46:00.164Z,0.66
2022-12-19T17:48:32.255Z,0.66
2022-12-19T17:50:59.985Z,0.63
2022-12-19T17:53:27.235Z,0.62
2022-12-19T17:55:54.044Z,0.66
2022-12-19T17:58:22.054Z,0.66
2022-12-19T18:00:49.985Z,0.66
2022-12-19T18:03:38.636Z,0.68
2022-12-19T18:06:11.792Z,0.70
2022-12-19T18:08:38.883Z,0.55
2022-12-19T18:11:21.184Z,0.80
2022-12-19T18:13:48.449Z,0.77
2022-12-19T18:16:18.816Z,0.80
2022-12-19T18:18:46.063Z,0.89
2022-12-19T18:21:20.258Z,0.84
2022-12-19T18:23:47.017Z,0.85
2022-12-19T18:26:14.467Z,0.84
2022-12-19T18:28:41.881Z,0.79
2022-12-19T18:31:20.359Z,0.79
2022-12-19T18:33:48.549Z,0.87
2022-12-19T18:36:22.972Z,0.86
2022-12-19T18:38:50.454Z,0.85
2022-12-19T18:41:18.769Z,0.86
2022-12-19T18:43:45.944Z,0.93
2022-12-19T18:46:19.411Z,0.97
2022-12-19T18:48:46.703Z,0.94
2022-12-19T18:51:16.798Z,0.92
2022-12-19T18:53:45.748Z,0.93
2022-12-19T18:56:12.799Z,0.90
2022-12-19T18:58:40.057Z,0.85
2022-12-19T19:01:12.876Z,0.84
2022-12-19T19:03:41.043Z,0.84
2022-12-19T19:06:18.628Z,0.83
2022-12-19T19:08:45.748Z,0.94
2022-12-19T19:11:36.555Z,0.94
2022-12-19T19:14:03.315Z,1.00
2022-12-19T19:16:30.425Z,1.00
2022-12-19T19:18:58.868Z,1.06
2022-12-19T19:21:32.109Z,1.00
2022-12-19T19:24:00.916Z,0.94
2022-12-19T19:26:29.059Z,0.93
2022-12-19T19:28:55.868Z,0.97
2022-12-19T19:31:24.737Z,0.96
2022-12-19T19:33:58.074Z,0.95
2022-12-19T19:36:28.323Z,0.92
2022-12-19T19:38:56.269Z,0.87
2022-12-19T19:41:29.350Z,0.87
2022-12-19T19:44:00.284Z,0.81
2022-12-19T19:46:30.233Z,0.90
2022-12-19T19:48:58.369Z,0.86
2022-12-19T19:51:25.378Z,0.92
2022-12-19T19:53:52.464Z,0.95
2022-12-19T19:56:19.556Z,0.93
2022-12-19T19:58:46.328Z,0.97
2022-12-19T20:01:14.358Z,1.00
2022-12-19T20:03:45.213Z,1.02
2022-12-19T20:06:12.302Z,0.98
2022-12-19T20:08:40.449Z,0.98
2022-12-19T20:11:08.852Z,0.93
2022-12-19T20:13:36.391Z,0.85
2022-12-19T20:16:10.648Z,0.82
2022-12-19T20:18:39.227Z,0.84
2022-12-19T20:21:13.548Z,0.83
2022-12-19T20:23:44.492Z,0.86
2022-12-19T20:26:13.206Z,0.82
2022-12-19T20:28:49.505Z,0.83
2022-12-19T20:31:24.235Z,0.80
2022-12-19T20:33:53.633Z,0.76
2022-12-19T20:36:20.794Z,0.76
2022-12-19T20:38:48.224Z,0.72
2022-12-19T20:42:40.786Z,0.68
2022-12-19T20:45:10.399Z,0.57
2022-12-19T20:47:42.885Z,0.69
2022-12-19T20:50:12.194Z,0.67
2022-12-19T20:52:41.217Z,0.65
2022-12-19T20:57:52.925Z,0.64
2022-12-19T21:03:29.734Z,0.57
2022-12-19T21:05:57.204Z,0.65
2022-12-19T21:08:28.017Z,0.67
2022-12-19T21:11:14.082Z,0.69
2022-12-19T21:14:10.656Z,0.77
2022-12-19T21:16:37.684Z,0.81
2022-12-19T21:19:05.169Z,0.79
2022-12-19T21:21:31.906Z,0.79
2022-12-19T21:24:00.478Z,0.76
2022-12-19T21:26:30.641Z,0.76
2022-12-19T21:29:00.235Z,0.73
2022-12-19T21:31:30.009Z,0.70
2022-12-19T21:33:59.648Z,0.71
2022-12-19T21:36:28.222Z,0.68
2022-12-19T21:38:57.732Z,0.69
2022-12-19T21:42:15.434Z,0.69
2022-12-19T21:44:14.915Z,0.69
2022-12-19T21:46:41.677Z,0.70
2022-12-19T21:49:09.659Z,0.67
2022-12-19T21:52:00.122Z,0.58
2022-12-19T21:54:26.934Z,0.72
2022-12-19T21:56:59.921Z,0.73
2022-12-19T21:59:26.713Z,0.69
2022-12-19T22:01:56.201Z,0.71
2022-12-19T22:04:26.678Z,0.68
2022-12-19T22:07:01.398Z,0.66
2022-12-19T22:09:33.113Z,0.72
2022-12-19T22:11:59.908Z,0.76
2022-12-19T22:14:26.904Z,0.81
2022-12-19T22:16:53.904Z,0.77
2022-12-19T22:19:20.704Z,0.81
2022-12-19T22:21:47.929Z,0.88
2022-12-19T22:24:16.598Z,0.93
2022-12-19T22:26:43.775Z,0.91
2022-12-19T22:29:17.100Z,0.86
2022-12-19T22:31:44.818Z,0.82
2022-12-19T22:34:14.571Z,0.81
2022-12-19T22:36:42.845Z,0.81
2022-12-19T22:39:12.967Z,0.81
2022-12-19T22:41:41.172Z,0.83
2022-12-19T22:44:14.684Z,0.84
2022-12-19T22:46:41.444Z,0.92
2022-12-19T22:49:10.832Z,0.90
2022-12-19T22:51:38.140Z,0.96
2022-12-19T22:54:05.789Z,0.96
2022-12-19T22:56:33.831Z,0.98
2022-12-19T22:59:04.710Z,0.97
2022-12-19T23:01:34.547Z,0.96
2022-12-19T23:04:04.418Z,1.00
2022-12-19T23:06:33.785Z,0.98
2022-12-19T23:09:01.138Z,1.00
2022-12-19T23:11:34.756Z,1.05
2022-12-19T23:14:02.738Z,0.81
2022-12-19T23:16:29.814Z,0.98
2022-12-19T23:18:56.609Z,0.96
2022-12-19T23:21:24.781Z,0.91
2022-12-19T23:23:52.953Z,0.94
2022-12-19T23:26:25.483Z,0.98
2022-12-19T23:29:07.481Z,0.91
2022-12-19T23:31:35.254Z,0.96
2022-12-19T23:34:05.420Z,0.93
2022-12-19T23:37:09.074Z,0.93
2022-12-19T23:39:18.993Z,0.97
2022-12-19T23:41:45.753Z,0.97
2022-12-19T23:44:14.801Z,0.98
2022-12-19T23:46:41.841Z,0.99
2022-12-19T23:49:08.546Z,0.94
2022-12-19T23:51:35.226Z,0.94
2022-12-19T23:54:01.957Z,0.96
2022-12-19T23:56:31.500Z,0.98
2022-12-19T23:58:59.048Z,0.93
